createdAt,value
2022-08-31T00:00:42.148Z,2.03
2022-08-31T00:03:29.891Z,2.43
2022-08-31T00:06:00.230Z,2.50
2022-08-31T00:08:30.511Z,2.57
2022-08-31T00:11:00.387Z,2.40
2022-08-31T00:13:30.558Z,2.57
2022-08-31T00:15:59.969Z,2.40
2022-08-31T00:18:31.465Z,2.57
2022-08-31T00:21:00.655Z,6.07
2022-08-31T00:23:30.112Z,4.13
2022-08-31T00:25:59.881Z,4.23
2022-08-31T00:28:29.586Z,3.27
2022-08-31T00:30:58.491Z,3.30
2022-08-31T00:33:27.306Z,4.30
2022-08-31T00:35:58.284Z,3.80
2022-08-31T00:38:27.157Z,2.77
2022-08-31T00:40:55.967Z,2.70
2022-08-31T00:43:40.118Z,2.40
2022-08-31T00:46:10.115Z,2.50
2022-08-31T00:48:43.907Z,3.33
2022-08-31T00:51:18.516Z,3.27
2022-08-31T00:53:50.796Z,7.80
2022-08-31T00:56:21.703Z,4.00
2022-08-31T00:58:54.701Z,3.83
2022-08-31T01:01:24.483Z,3.07
2022-08-31T01:03:53.752Z,4.97
2022-08-31T01:06:24.400Z,4.70
2022-08-31T01:08:53.593Z,3.80
2022-08-31T01:11:23.536Z,4.07
2022-08-31T01:13:52.935Z,3.77
2022-08-31T01:16:25.837Z,4.03
2022-08-31T01:19:08.588Z,4.57
2022-08-31T01:21:41.422Z,4.57
2022-08-31T01:24:11.663Z,3.70
2022-08-31T01:26:40.653Z,3.27
2022-08-31T01:29:09.169Z,3.20
2022-08-31T01:31:45.345Z,6.77
2022-08-31T01:34:14.723Z,7.07
2022-08-31T01:36:44.339Z,5.13
2022-08-31T01:39:14.977Z,6.70
2022-08-31T01:41:44.436Z,7.23
2022-08-31T01:44:14.053Z,4.97
2022-08-31T01:46:43.529Z,5.23
2022-08-31T01:49:12.792Z,4.73
2022-08-31T01:51:41.287Z,9.77
2022-08-31T01:54:10.885Z,4.77
2022-08-31T01:56:43.114Z,5.57
2022-08-31T01:59:17.631Z,6.70
2022-08-31T02:01:48.419Z,7.07
2022-08-31T02:04:19.184Z,10.20
2022-08-31T02:06:51.953Z,9.00
2022-08-31T02:09:22.502Z,6.97
2022-08-31T02:11:52.776Z,11.53
2022-08-31T02:14:22.100Z,9.63
2022-08-31T02:16:50.950Z,6.30
2022-08-31T02:19:19.876Z,7.20
2022-08-31T02:21:48.653Z,5.30
2022-08-31T02:24:17.747Z,7.10
2022-08-31T02:26:49.378Z,7.97
2022-08-31T02:29:22.016Z,10.27
2022-08-31T02:31:50.935Z,9.07
2022-08-31T02:34:19.809Z,8.93
2022-08-31T02:36:48.686Z,7.27
2022-08-31T02:39:17.498Z,10.57
2022-08-31T02:41:46.220Z,7.20
2022-08-31T02:44:14.865Z,7.03
2022-08-31T02:46:45.433Z,8.20
2022-08-31T02:49:41.208Z,8.13
2022-08-31T02:52:09.703Z,7.87
2022-08-31T02:54:38.549Z,7.43
2022-08-31T02:57:07.936Z,6.67
2022-08-31T02:59:36.623Z,7.73
2022-08-31T03:02:06.824Z,7.47
2022-08-31T03:04:38.102Z,7.60
2022-08-31T03:07:07.105Z,8.10
2022-08-31T03:09:35.557Z,5.87
2022-08-31T03:12:04.829Z,6.83
2022-08-31T03:14:34.371Z,6.67
2022-08-31T03:17:05.120Z,5.77
2022-08-31T03:19:35.909Z,5.57
2022-08-31T03:22:05.556Z,6.83
2022-08-31T03:24:34.293Z,7.20
2022-08-31T03:27:02.847Z,8.67
2022-08-31T03:29:31.155Z,7.97
2022-08-31T03:32:16.742Z,9.63
2022-08-31T03:34:55.489Z,11.60
2022-08-31T03:37:24.351Z,9.37
2022-08-31T03:39:55.179Z,9.83
2022-08-31T03:42:23.922Z,7.27
2022-08-31T03:44:52.847Z,13.13
2022-08-31T03:47:29.204Z,8.77
2022-08-31T03:50:17.919Z,10.60
2022-08-31T03:53:01.313Z,9.17
2022-08-31T03:55:31.189Z,11.40
2022-08-31T03:58:00.173Z,9.03
2022-08-31T04:00:29.263Z,9.00
2022-08-31T04:03:05.401Z,9.50
2022-08-31T04:05:36.674Z,10.57
2022-08-31T04:08:43.839Z,10.83
2022-08-31T04:11:44.828Z,9.23
2022-08-31T04:14:37.528Z,7.73
2022-08-31T04:17:24.965Z,11.57
2022-08-31T04:20:02.297Z,7.73
2022-08-31T04:22:43.516Z,9.83
2022-08-31T04:25:32.483Z,6.57
2022-08-31T04:28:01.971Z,7.37
2022-08-31T04:30:32.420Z,7.87
2022-08-31T04:33:02.276Z,6.43
2022-08-31T04:35:32.275Z,7.57
2022-08-31T04:38:01.079Z,9.90
2022-08-31T04:40:30.481Z,6.63
2022-08-31T04:43:00.901Z,7.43
2022-08-31T04:45:29.780Z,12.90
2022-08-31T04:47:58.737Z,11.23
2022-08-31T04:50:27.349Z,7.50
2022-08-31T04:53:12.744Z,10.67
2022-08-31T04:55:42.273Z,8.33
2022-08-31T04:58:14.014Z,11.47
2022-08-31T05:00:43.904Z,8.43
2022-08-31T05:03:31.285Z,11.23
2022-08-31T05:05:59.989Z,16.87
2022-08-31T05:08:30.929Z,12.13
2022-08-31T05:11:00.504Z,9.50
2022-08-31T05:13:29.159Z,10.77
2022-08-31T05:15:58.171Z,12.73
2022-08-31T05:18:26.897Z,12.83
2022-08-31T05:20:58.824Z,8.43
2022-08-31T05:23:29.708Z,3.90
2022-08-31T05:25:58.877Z,4.93
2022-08-31T05:28:27.977Z,3.97
2022-08-31T05:30:57.941Z,4.27
2022-08-31T05:33:38.249Z,3.93
2022-08-31T05:36:07.821Z,3.70
2022-08-31T05:38:42.203Z,3.83
2022-08-31T05:41:12.296Z,4.57
2022-08-31T05:43:41.806Z,3.40
2022-08-31T05:46:13.394Z,4.60
2022-08-31T05:48:42.255Z,5.07
2022-08-31T05:51:19.704Z,2.53
2022-08-31T05:53:50.237Z,2.40
2022-08-31T05:56:22.207Z,2.33
2022-08-31T05:58:54.481Z,1.65
2022-08-31T06:01:24.694Z,3.20
2022-08-31T06:04:13.834Z,2.00
2022-08-31T06:06:43.989Z,3.45
2022-08-31T06:09:18.724Z,3.00
2022-08-31T06:11:47.724Z,2.22
2022-08-31T06:14:19.443Z,2.10
2022-08-31T06:16:49.783Z,2.45
2022-08-31T06:19:21.646Z,1.95
2022-08-31T06:21:52.225Z,2.50
2022-08-31T06:24:28.345Z,7.38
2022-08-31T06:26:59.114Z,5.20
2022-08-31T06:29:31.819Z,2.88
2022-08-31T06:32:07.852Z,3.15
2022-08-31T06:34:38.356Z,2.08
2022-08-31T06:37:10.924Z,3.42
2022-08-31T06:40:08.589Z,1.90
2022-08-31T06:43:09.810Z,2.28
2022-08-31T06:45:59.085Z,1.40
2022-08-31T06:48:33.753Z,3.63
2022-08-31T06:51:03.667Z,3.78
2022-08-31T06:53:32.649Z,2.65
2022-08-31T06:56:22.747Z,3.40
2022-08-31T06:59:17.225Z,5.57
2022-08-31T07:02:12.576Z,4.15
2022-08-31T07:04:41.274Z,2.00
2022-08-31T07:07:11.582Z,6.20
2022-08-31T07:09:41.692Z,6.28
2022-08-31T07:12:12.234Z,1.80
2022-08-31T07:14:41.041Z,3.05
2022-08-31T07:17:09.772Z,3.00
2022-08-31T07:19:44.714Z,3.80
2022-08-31T07:22:15.535Z,1.23
2022-08-31T07:24:46.073Z,2.42
2022-08-31T07:27:18.686Z,2.60
2022-08-31T07:29:51.966Z,1.27
2022-08-31T07:32:22.953Z,1.50
2022-08-31T07:34:58.431Z,1.27
2022-08-31T07:37:49.673Z,0.75
2022-08-31T07:40:39.230Z,2.22
2022-08-31T07:43:12.956Z,0.60
2022-08-31T07:45:42.643Z,1.33
2022-08-31T07:48:16.149Z,1.45
2022-08-31T07:51:23.661Z,0.85
2022-08-31T07:54:11.924Z,1.50
2022-08-31T07:57:04.747Z,1.08
2022-08-31T07:59:37.357Z,0.75
2022-08-31T08:02:06.865Z,1.50
2022-08-31T08:04:44.430Z,1.17
2022-08-31T08:07:34.052Z,1.65
2022-08-31T08:10:34.821Z,0.55
2022-08-31T08:13:26.414Z,0.98
2022-08-31T08:16:23.648Z,0.93
2022-08-31T08:19:08.434Z,1.80
2022-08-31T08:21:38.183Z,0.70
2022-08-31T08:24:08.398Z,1.47
2022-08-31T08:26:59.294Z,3.00
2022-08-31T08:29:47.355Z,0.87
2022-08-31T08:32:25.944Z,1.20
2022-08-31T08:34:54.658Z,3.50
2022-08-31T08:37:41.125Z,0.90
2022-08-31T08:40:17.454Z,0.50
2022-08-31T08:42:46.531Z,0.63
2022-08-31T08:45:15.373Z,1.50
2022-08-31T08:47:50.464Z,0.90
2022-08-31T08:50:19.579Z,0.83
2022-08-31T08:52:49.320Z,0.47
2022-08-31T08:55:22.119Z,1.07
2022-08-31T08:57:52.422Z,0.50
2022-08-31T09:00:25.423Z,1.20
2022-08-31T09:03:07.297Z,1.40
2022-08-31T09:06:01.382Z,0.50
2022-08-31T09:08:59.587Z,1.03
2022-08-31T09:11:34.609Z,0.80
2022-08-31T09:14:15.478Z,0.80
2022-08-31T09:16:49.712Z,0.90
2022-08-31T09:19:22.347Z,0.50
2022-08-31T09:21:53.335Z,3.53
2022-08-31T09:24:27.649Z,1.00
2022-08-31T09:27:45.873Z,0.67
2022-08-31T09:30:18.809Z,2.43
2022-08-31T09:32:58.456Z,0.80
2022-08-31T09:35:40.579Z,0.97
2022-08-31T09:38:11.425Z,0.90
2022-08-31T09:40:42.060Z,4.47
2022-08-31T09:43:13.809Z,1.27
2022-08-31T09:45:54.983Z,1.97
2022-08-31T09:48:44.565Z,0.50
2022-08-31T09:51:24.652Z,1.63
2022-08-31T09:54:11.507Z,3.90
2022-08-31T09:56:59.417Z,1.10
2022-08-31T09:59:37.438Z,1.87
2022-08-31T10:02:09.598Z,1.17
2022-08-31T10:04:48.098Z,0.53
2022-08-31T10:07:28.901Z,3.80
2022-08-31T10:10:01.290Z,2.57
2022-08-31T10:12:39.263Z,0.50
2022-08-31T10:15:15.714Z,1.70
2022-08-31T10:17:50.183Z,2.00
2022-08-31T10:20:21.833Z,3.40
2022-08-31T10:22:56.566Z,1.03
2022-08-31T10:25:31.217Z,0.63
2022-08-31T10:28:11.941Z,1.20
2022-08-31T10:30:46.050Z,0.90
2022-08-31T10:33:19.683Z,1.53
2022-08-31T10:35:57.577Z,0.90
2022-08-31T10:38:32.713Z,2.70
2022-08-31T10:41:10.799Z,0.70
2022-08-31T10:43:46.120Z,3.00
2022-08-31T10:46:16.248Z,1.60
2022-08-31T10:48:51.981Z,2.13
2022-08-31T10:51:24.177Z,2.00
2022-08-31T10:54:09.009Z,2.40
2022-08-31T10:56:44.244Z,0.43
2022-08-31T10:59:20.839Z,2.07
2022-08-31T11:01:57.347Z,2.30
2022-08-31T11:04:44.881Z,2.50
2022-08-31T11:07:25.133Z,1.67
2022-08-31T11:10:03.263Z,1.47
2022-08-31T11:12:42.516Z,1.53
2022-08-31T11:15:24.262Z,1.73
2022-08-31T11:18:22.289Z,0.67
2022-08-31T11:21:05.232Z,1.57
2022-08-31T11:23:51.615Z,1.83
2022-08-31T11:26:48.047Z,0.93
2022-08-31T11:29:28.962Z,2.00
2022-08-31T11:32:01.578Z,2.33
2022-08-31T11:34:35.319Z,2.53
2022-08-31T11:37:05.095Z,0.90
2022-08-31T11:39:43.140Z,3.17
2022-08-31T11:42:14.564Z,3.73
2022-08-31T11:45:01.940Z,1.10
2022-08-31T11:47:37.221Z,0.80
2022-08-31T11:50:11.816Z,1.03
2022-08-31T11:52:48.691Z,1.23
2022-08-31T11:55:23.737Z,1.00
2022-08-31T11:58:26.043Z,1.00
2022-08-31T12:00:59.558Z,0.70
2022-08-31T12:03:51.794Z,1.63
2022-08-31T12:07:00.238Z,1.90
2022-08-31T12:09:46.084Z,1.10
2022-08-31T12:12:22.754Z,3.17
2022-08-31T12:14:56.829Z,3.87
2022-08-31T12:17:31.232Z,1.27
2022-08-31T12:20:07.211Z,0.97
2022-08-31T12:23:37.749Z,0.63
2022-08-31T12:26:25.966Z,0.83
2022-08-31T12:29:20.051Z,0.60
2022-08-31T12:32:28.969Z,1.17
2022-08-31T12:35:05.430Z,0.53
2022-08-31T12:37:36.568Z,1.43
2022-08-31T12:40:16.332Z,1.87
2022-08-31T12:43:02.950Z,0.87
2022-08-31T12:45:44.335Z,1.57
2022-08-31T12:48:23.057Z,3.50
2022-08-31T12:50:57.587Z,0.57
2022-08-31T12:53:53.167Z,0.70
2022-08-31T12:56:28.375Z,1.57
2022-08-31T12:59:09.574Z,1.70
2022-08-31T13:01:41.416Z,1.13
2022-08-31T13:04:11.232Z,0.80
2022-08-31T13:06:45.264Z,0.50
2022-08-31T13:09:29.108Z,0.87
2022-08-31T13:11:59.608Z,0.50
2022-08-31T13:14:31.126Z,1.30
2022-08-31T13:17:06.994Z,0.87
2022-08-31T13:19:36.289Z,1.73
2022-08-31T13:22:08.893Z,1.03
2022-08-31T13:24:41.165Z,2.20
2022-08-31T13:27:13.436Z,1.63
2022-08-31T13:29:45.236Z,2.13
2022-08-31T13:32:16.357Z,2.00
2022-08-31T13:34:44.744Z,0.93
2022-08-31T13:37:20.141Z,1.60
2022-08-31T13:39:48.899Z,0.77
2022-08-31T13:42:32.029Z,2.57
2022-08-31T13:45:02.835Z,2.10
2022-08-31T13:47:48.774Z,2.00
2022-08-31T13:50:26.159Z,0.80
2022-08-31T13:55:48.907Z,1.63
2022-08-31T13:58:27.616Z,0.80
2022-08-31T14:01:19.891Z,2.73
2022-08-31T14:03:57.401Z,1.03
2022-08-31T14:06:28.265Z,2.23
2022-08-31T14:09:03.614Z,1.17
2022-08-31T14:11:33.750Z,2.00
2022-08-31T14:14:06.158Z,0.60
2022-08-31T14:16:38.379Z,0.90
2022-08-31T14:19:10.934Z,1.73
2022-08-31T14:21:43.610Z,1.50
2022-08-31T14:24:13.949Z,0.83
2022-08-31T14:26:44.446Z,0.70
2022-08-31T14:29:15.068Z,0.80
2022-08-31T14:31:48.508Z,0.83
2022-08-31T14:34:25.029Z,0.73
2022-08-31T14:36:57.627Z,1.43
2022-08-31T14:39:31.956Z,0.50
2022-08-31T14:42:02.260Z,0.40
2022-08-31T14:44:34.519Z,0.60
2022-08-31T14:47:03.740Z,0.73
2022-08-31T14:49:36.242Z,0.80
2022-08-31T14:52:06.949Z,0.40
2022-08-31T14:54:37.864Z,0.60
2022-08-31T14:57:09.706Z,1.40
2022-08-31T14:59:40.750Z,0.60
2022-08-31T15:02:12.790Z,0.60
2022-08-31T15:04:43.678Z,1.63
2022-08-31T15:07:15.282Z,1.17
2022-08-31T15:09:46.791Z,0.70
2022-08-31T15:12:16.629Z,0.60
2022-08-31T15:14:47.415Z,1.73
2022-08-31T15:17:19.922Z,0.50
2022-08-31T15:19:55.173Z,1.03
2022-08-31T15:22:25.672Z,1.20
2022-08-31T15:24:57.035Z,1.20
2022-08-31T15:27:29.486Z,0.63
2022-08-31T15:30:08.110Z,0.83
2022-08-31T15:32:39.913Z,1.80
2022-08-31T15:35:14.646Z,0.70
2022-08-31T15:37:44.854Z,1.90
2022-08-31T15:40:15.177Z,0.80
2022-08-31T15:42:46.222Z,0.90
2022-08-31T15:45:14.928Z,0.80
2022-08-31T15:48:00.811Z,1.27
2022-08-31T15:50:31.712Z,1.23
2022-08-31T15:53:08.214Z,0.83
2022-08-31T15:55:41.395Z,1.47
2022-08-31T15:58:10.672Z,0.97
2022-08-31T16:00:42.108Z,1.53
2022-08-31T16:03:11.104Z,2.50
2022-08-31T16:05:40.019Z,0.60
2022-08-31T16:08:11.220Z,1.57
2022-08-31T16:10:45.310Z,0.73
2022-08-31T16:13:15.901Z,0.63
2022-08-31T16:15:51.324Z,0.87
2022-08-31T16:18:23.150Z,1.63
2022-08-31T16:20:52.795Z,1.50
2022-08-31T16:23:24.891Z,2.60
2022-08-31T16:25:54.749Z,0.60
2022-08-31T16:28:23.382Z,0.60
2022-08-31T16:30:52.112Z,2.03
2022-08-31T16:33:21.266Z,2.13
2022-08-31T16:35:50.239Z,1.93
2022-08-31T16:38:19.893Z,1.63
2022-08-31T16:40:49.101Z,2.90
2022-08-31T16:43:19.275Z,0.60
2022-08-31T16:45:48.061Z,0.60
2022-08-31T16:48:34.248Z,0.80
2022-08-31T16:51:04.173Z,2.33
2022-08-31T16:53:33.206Z,2.70
2022-08-31T16:56:03.949Z,1.70
2022-08-31T16:58:51.201Z,0.60
2022-08-31T17:01:22.184Z,3.73
2022-08-31T17:03:52.925Z,0.70
2022-08-31T17:06:22.015Z,0.90
2022-08-31T17:08:54.268Z,0.90
2022-08-31T17:11:25.683Z,1.53
2022-08-31T17:13:58.393Z,0.83
2022-08-31T17:16:28.629Z,0.70
2022-08-31T17:18:58.836Z,2.10
2022-08-31T17:21:29.882Z,1.37
2022-08-31T17:23:59.727Z,1.00
2022-08-31T17:26:31.093Z,3.27
2022-08-31T17:29:02.922Z,1.10
2022-08-31T17:31:33.799Z,1.53
2022-08-31T17:34:02.694Z,2.63
2022-08-31T17:36:37.360Z,3.23
2022-08-31T17:39:07.471Z,1.87
2022-08-31T17:41:37.013Z,2.13
2022-08-31T17:44:08.139Z,1.40
2022-08-31T17:46:37.685Z,1.47
2022-08-31T17:49:06.741Z,1.53
2022-08-31T17:51:36.391Z,3.07
2022-08-31T17:54:10.921Z,2.83
2022-08-31T17:56:47.844Z,1.10
2022-08-31T17:59:20.854Z,2.33
2022-08-31T18:01:52.403Z,1.20
2022-08-31T18:04:23.273Z,5.27
2022-08-31T18:06:55.125Z,5.33
2022-08-31T18:09:25.368Z,6.17
2022-08-31T18:11:54.511Z,5.30
2022-08-31T18:14:28.203Z,3.17
2022-08-31T18:16:58.487Z,3.83
2022-08-31T18:19:28.802Z,4.87
2022-08-31T18:21:58.201Z,1.43
2022-08-31T18:24:27.011Z,2.17
2022-08-31T18:26:57.001Z,1.50
2022-08-31T18:29:26.905Z,1.40
2022-08-31T18:31:59.420Z,2.27
2022-08-31T18:34:28.855Z,1.80
2022-08-31T18:36:59.289Z,2.17
2022-08-31T18:39:51.616Z,1.80
2022-08-31T18:42:38.455Z,1.77
2022-08-31T18:45:19.977Z,2.03
2022-08-31T18:50:44.663Z,1.50
2022-08-31T18:53:15.435Z,1.97
2022-08-31T18:55:44.804Z,1.23
2022-08-31T18:58:13.991Z,3.40
2022-08-31T19:00:43.927Z,1.47
2022-08-31T19:03:13.041Z,1.67
2022-08-31T19:05:42.383Z,3.23
2022-08-31T19:08:11.433Z,1.93
2022-08-31T19:10:42.091Z,2.73
2022-08-31T19:13:10.843Z,2.53
2022-08-31T19:15:40.497Z,2.67
2022-08-31T19:18:10.656Z,3.07
2022-08-31T19:20:39.985Z,2.87
2022-08-31T19:23:09.222Z,1.47
2022-08-31T19:25:43.602Z,1.73
2022-08-31T19:28:13.160Z,3.27
2022-08-31T19:30:46.802Z,2.17
2022-08-31T19:33:19.000Z,1.47
2022-08-31T19:35:47.997Z,1.33
2022-08-31T19:38:16.864Z,2.50
2022-08-31T19:40:50.343Z,2.30
2022-08-31T19:46:13.894Z,3.60
2022-08-31T19:48:45.213Z,2.87
2022-08-31T19:51:15.444Z,4.33
2022-08-31T19:53:45.658Z,2.33
2022-08-31T19:56:17.838Z,1.93
2022-08-31T19:58:48.514Z,1.60
2022-08-31T20:01:19.730Z,1.77
2022-08-31T20:03:50.517Z,2.73
2022-08-31T20:06:20.987Z,3.03
2022-08-31T20:08:51.200Z,1.40
2022-08-31T20:11:22.517Z,2.80
2022-08-31T20:13:51.533Z,2.57
2022-08-31T20:16:22.230Z,1.60
2022-08-31T20:19:00.206Z,1.90
2022-08-31T20:21:31.310Z,2.73
2022-08-31T20:24:03.486Z,2.73
2022-08-31T20:26:36.431Z,1.83
2022-08-31T20:29:10.352Z,2.30
2022-08-31T20:31:40.509Z,2.70
2022-08-31T20:34:18.609Z,2.93
2022-08-31T20:36:50.136Z,2.90
2022-08-31T20:39:20.823Z,3.90
2022-08-31T20:41:52.575Z,2.47
2022-08-31T20:44:23.673Z,4.23
2022-08-31T20:47:12.051Z,4.73
2022-08-31T20:49:44.371Z,2.47
2022-08-31T20:52:15.795Z,3.23
2022-08-31T20:54:44.924Z,2.40
2022-08-31T20:57:14.995Z,3.03
2022-08-31T20:59:43.843Z,2.00
2022-08-31T21:02:13.666Z,1.90
2022-08-31T21:04:46.092Z,2.70
2022-08-31T21:07:16.587Z,4.40
2022-08-31T21:09:46.994Z,3.27
2022-08-31T21:12:18.174Z,2.80
2022-08-31T21:14:47.339Z,4.43
2022-08-31T21:17:17.124Z,3.57
2022-08-31T21:19:49.305Z,1.90
2022-08-31T21:22:19.458Z,2.77
2022-08-31T21:24:49.953Z,1.50
2022-08-31T21:27:20.011Z,2.70
2022-08-31T21:29:50.084Z,2.40
2022-08-31T21:32:19.800Z,2.77
2022-08-31T21:34:50.914Z,3.70
2022-08-31T21:37:19.571Z,2.83
2022-08-31T21:39:47.925Z,5.07
2022-08-31T21:42:16.723Z,2.60
2022-08-31T21:44:45.899Z,3.07
2022-08-31T21:47:15.744Z,3.03
2022-08-31T21:49:45.278Z,2.90
2022-08-31T21:52:17.797Z,2.47
2022-08-31T21:54:48.149Z,4.10
2022-08-31T21:57:18.090Z,4.60
2022-08-31T21:59:46.982Z,3.00
2022-08-31T22:02:15.909Z,4.47
2022-08-31T22:04:46.119Z,2.30
2022-08-31T22:07:16.275Z,2.07
2022-08-31T22:09:47.019Z,2.60
2022-08-31T22:12:18.105Z,6.30
2022-08-31T22:14:48.654Z,3.23
2022-08-31T22:17:17.554Z,5.03
2022-08-31T22:19:47.128Z,2.53
2022-08-31T22:22:18.014Z,2.80
2022-08-31T22:24:47.249Z,4.80
2022-08-31T22:27:16.441Z,3.03
2022-08-31T22:29:45.983Z,4.03
2022-08-31T22:32:16.072Z,2.87
2022-08-31T22:34:46.394Z,2.63
2022-08-31T22:37:16.586Z,5.80
2022-08-31T22:39:45.632Z,2.97
2022-08-31T22:42:15.224Z,3.87
2022-08-31T22:44:44.196Z,3.60
2022-08-31T22:47:13.247Z,3.57
2022-08-31T22:49:41.782Z,3.23
2022-08-31T22:52:14.101Z,4.10
2022-08-31T22:54:47.459Z,3.33
2022-08-31T22:57:17.169Z,3.40
2022-08-31T22:59:47.501Z,3.53
2022-08-31T23:02:18.851Z,3.50
2022-08-31T23:04:49.033Z,3.70
2022-08-31T23:07:18.232Z,3.63
2022-08-31T23:09:48.436Z,5.97
2022-08-31T23:12:17.454Z,3.73
2022-08-31T23:14:46.306Z,3.33
2022-08-31T23:17:16.774Z,3.63
2022-08-31T23:19:46.862Z,3.50
2022-08-31T23:22:17.665Z,4.03
2022-08-31T23:24:53.010Z,6.27
2022-08-31T23:27:23.318Z,4.43
2022-08-31T23:29:54.032Z,5.13
2022-08-31T23:32:27.609Z,3.97
2022-08-31T23:34:58.754Z,3.73
2022-08-31T23:37:30.412Z,3.60
2022-08-31T23:40:03.861Z,4.07
2022-08-31T23:42:34.634Z,3.63
2022-08-31T23:45:04.222Z,5.30
2022-08-31T23:47:34.498Z,5.07
2022-08-31T23:50:04.905Z,6.83
2022-08-31T23:52:41.855Z,6.50
2022-08-31T23:55:13.140Z,6.10
2022-08-31T23:57:47.684Z,4.40
